Time;durP1;ratioP1;P1;durP2;ratioP2;P2;SDS_P1;SDS_P2;PMS_P1;PMS_P2;Temp;Humidity;BMP_temperature;BMP_pressure;BME280_temperature;BME280_humidity;BME280_pressure;Samples;Min_cycle;Max_cycle;Signal;HPM_P1;HPM_P2
2022/08/10 00:01:33;;;;;;;7.95;2.47;;;22.50;66.10;;;;;;4953683;29;20114;-44
2022/08/10 00:03:59;;;;;;;4.20;2.63;;;22.50;66.10;;;;;;4953648;29;20047;-41
2022/08/10 00:06:25;;;;;;;2.47;2.20;;;22.50;66.30;;;;;;4955238;28;20499;-44
2022/08/10 00:08:51;;;;;;;6.55;3.35;;;22.50;66.30;;;;;;4958022;29;20088;-42
2022/08/10 00:11:17;;;;;;;4.35;2.08;;;22.50;66.30;;;;;;4956466;28;20051;-43
2022/08/10 00:13:42;;;;;;;3.53;2.10;;;22.40;66.40;;;;;;4955407;28;20034;-45
2022/08/10 00:16:08;;;;;;;3.83;2.03;;;22.40;66.30;;;;;;4954942;29;20031;-43
2022/08/10 00:18:33;;;;;;;4.13;2.03;;;22.40;67.20;;;;;;4953419;28;20086;-43
2022/08/10 00:20:59;;;;;;;4.90;2.05;;;22.40;66.70;;;;;;4953153;28;20035;-42
2022/08/10 00:23:24;;;;;;;6.00;1.80;;;22.40;66.60;;;;;;4953159;29;20035;-44
2022/08/10 00:25:50;;;;;;;4.32;2.20;;;22.40;66.70;;;;;;4953589;29;20031;-44
2022/08/10 00:28:15;;;;;;;8.98;3.05;;;22.30;66.80;;;;;;4953177;29;20027;-43
2022/08/10 00:30:41;;;;;;;2.67;2.13;;;22.30;66.80;;;;;;4952682;28;20481;-43
2022/08/10 00:33:06;;;;;;;2.75;2.33;;;22.30;67.00;;;;;;4952714;29;20481;-44
2022/08/10 00:35:32;;;;;;;14.80;2.45;;;22.30;67.00;;;;;;4952993;29;20039;-45
2022/08/10 00:37:57;;;;;;;3.50;2.13;;;22.20;67.10;;;;;;4952932;29;20035;-48
2022/08/10 00:40:23;;;;;;;4.60;2.10;;;22.20;67.10;;;;;;4951669;28;20437;-43
2022/08/10 00:42:49;;;;;;;4.93;1.98;;;22.20;67.20;;;;;;4951485;29;20028;-43
2022/08/10 00:45:14;;;;;;;5.32;2.00;;;22.20;67.30;;;;;;4952992;29;20032;-44
2022/08/10 00:47:40;;;;;;;2.22;2.03;;;22.20;67.40;;;;;;4952971;29;20031;-43
2022/08/10 00:50:06;;;;;;;7.65;2.17;;;22.10;67.50;;;;;;4952681;28;20090;-43
2022/08/10 00:52:34;;;;;;;6.10;3.42;;;22.10;67.60;;;;;;4952550;28;20027;-44
2022/08/10 00:55:01;;;;;;;6.07;2.50;;;22.00;67.70;;;;;;4955529;28;20098;-43
2022/08/10 00:57:27;;;;;;;4.43;2.50;;;22.00;67.70;;;;;;4956620;28;20042;-43
2022/08/10 00:59:54;;;;;;;2.08;1.98;;;22.00;68.00;;;;;;4956245;28;20027;-45
2022/08/10 01:02:20;;;;;;;3.97;2.03;;;22.00;68.00;;;;;;4956107;28;20122;-41
2022/08/10 01:04:46;;;;;;;3.83;2.10;;;21.90;68.20;;;;;;4956302;28;20058;-45
2022/08/10 01:07:40;;;;;;;2.60;2.40;;;21.90;68.30;;;;;;4956099;28;20027;-46
2022/08/10 01:10:37;;;;;;;4.70;2.50;;;21.90;68.50;;;;;;4956180;28;20023;-45
2022/08/10 01:13:08;;;;;;;6.20;2.40;;;21.80;68.40;;;;;;4956609;28;20480;-44
2022/08/10 01:15:46;;;;;;;4.20;2.13;;;21.80;68.70;;;;;;4956038;29;20038;-45
2022/08/10 01:18:28;;;;;;;2.50;2.30;;;21.70;68.80;;;;;;4954954;29;20496;-43
2022/08/10 01:21:14;;;;;;;8.07;2.28;;;21.70;68.90;;;;;;4955932;28;20081;-43
2022/08/10 01:23:57;;;;;;;5.15;2.47;;;21.70;69.20;;;;;;4955840;28;20042;-43
2022/08/10 01:26:35;;;;;;;8.30;2.30;;;21.60;69.20;;;;;;4955968;29;20027;-42
2022/08/10 01:29:15;;;;;;;4.60;2.30;;;21.60;69.30;;;;;;4955968;28;20030;-44
2022/08/10 01:31:44;;;;;;;8.85;2.13;;;21.50;69.60;;;;;;4955816;28;20458;-47
2022/08/10 01:34:13;;;;;;;4.20;2.80;;;21.50;69.70;;;;;;4955500;28;20079;-42
2022/08/10 01:36:52;;;;;;;3.88;3.15;;;21.50;69.90;;;;;;4955681;28;20027;-44
2022/08/10 01:39:28;;;;;;;5.72;2.30;;;21.40;70.00;;;;;;4956030;28;20080;-43
2022/08/10 01:41:57;;;;;;;4.25;2.35;;;21.40;70.10;;;;;;4955719;28;20034;-44
2022/08/10 01:44:44;;;;;;;6.55;2.35;;;21.30;70.30;;;;;;4955857;28;20027;-43
2022/08/10 01:50:08;;;;;;;3.33;2.30;;;21.30;70.70;;;;;;4955729;28;20563;-44
2022/08/10 01:52:35;;;;;;;3.95;2.72;;;21.20;70.60;;;;;;4955667;28;20038;-44
2022/08/10 01:55:01;;;;;;;3.03;1.98;;;21.20;71.00;;;;;;4955373;28;20044;-46
2022/08/10 01:57:30;;;;;;;5.93;2.40;;;21.20;71.00;;;;;;4955283;28;20031;-45
2022/08/10 01:59:57;;;;;;;3.22;2.53;;;21.20;71.10;;;;;;4955176;28;20019;-44
2022/08/10 02:02:25;;;;;;;7.75;2.40;;;21.20;71.20;;;;;;4954977;28;20034;-41
2022/08/10 02:04:53;;;;;;;9.68;2.60;;;21.10;71.10;;;;;;4954649;28;20063;-42
2022/08/10 02:07:23;;;;;;;2.10;2.00;;;21.10;71.30;;;;;;4954832;28;20476;-45
2022/08/10 02:09:52;;;;;;;3.03;2.00;;;21.10;71.30;;;;;;4955508;28;20031;-43
2022/08/10 02:12:25;;;;;;;3.30;2.30;;;21.10;71.50;;;;;;4954841;28;20086;-46
2022/08/10 02:14:55;;;;;;;4.07;2.17;;;21.10;71.50;;;;;;4955074;28;20560;-46
2022/08/10 02:17:34;;;;;;;5.43;2.85;;;21.10;71.70;;;;;;4955204;28;20035;-45
2022/08/10 02:20:06;;;;;;;10.07;2.78;;;21.00;71.60;;;;;;4955139;28;20027;-42
2022/08/10 02:22:34;;;;;;;5.43;2.45;;;21.00;71.60;;;;;;4954419;28;20023;-45
2022/08/10 02:25:02;;;;;;;2.70;2.33;;;21.00;71.60;;;;;;4954958;28;20028;-43
2022/08/10 02:27:28;;;;;;;6.47;2.47;;;21.00;71.80;;;;;;4953438;29;20026;-44
2022/08/10 02:29:56;;;;;;;3.13;2.40;;;20.90;71.90;;;;;;4954257;28;20117;-41
2022/08/10 02:32:24;;;;;;;5.43;2.30;;;21.00;72.00;;;;;;4954532;28;20023;-47
2022/08/10 02:34:50;;;;;;;13.43;2.55;;;20.90;72.10;;;;;;4954734;28;20118;-42
2022/08/10 02:37:20;;;;;;;3.55;2.40;;;20.90;72.30;;;;;;4954668;28;20042;-48
2022/08/10 02:39:46;;;;;;;4.90;2.30;;;20.90;72.30;;;;;;4954473;28;20059;-44
2022/08/10 02:42:18;;;;;;;2.65;2.45;;;20.80;72.50;;;;;;4954105;29;20062;-42
2022/08/10 02:44:55;;;;;;;6.55;2.55;;;20.80;72.60;;;;;;4954474;28;20050;-42
2022/08/10 02:47:28;;;;;;;4.10;2.35;;;20.80;72.80;;;;;;4954559;28;20098;-42
2022/08/10 02:50:33;;;;;;;3.92;2.60;;;20.80;72.80;;;;;;4954223;28;20041;-44
2022/08/10 02:53:14;;;;;;;8.70;2.50;;;20.80;73.00;;;;;;4951023;29;20416;-42
2022/08/10 02:55:45;;;;;;;5.13;2.53;;;20.70;73.10;;;;;;4953152;29;20544;-46
2022/08/10 02:58:19;;;;;;;3.90;2.33;;;20.70;73.30;;;;;;4954820;28;20031;-46
2022/08/10 03:00:52;;;;;;;3.92;2.70;;;20.60;73.40;;;;;;4953453;28;20038;-45
2022/08/10 03:03:22;;;;;;;9.13;3.03;;;20.60;73.40;;;;;;4954155;28;20118;-44
2022/08/10 03:05:53;;;;;;;7.80;2.78;;;20.60;73.50;;;;;;4954333;28;20029;-43
2022/08/10 03:08:23;;;;;;;4.35;2.50;;;20.50;73.60;;;;;;4954151;28;20023;-44
2022/08/10 03:10:49;;;;;;;4.60;2.47;;;20.50;73.80;;;;;;4954003;28;20038;-43
2022/08/10 03:13:17;;;;;;;8.07;2.63;;;20.50;73.90;;;;;;4953664;28;20035;-43
2022/08/10 03:15:44;;;;;;;21.80;3.85;;;20.50;74.10;;;;;;4953787;28;20062;-42
2022/08/10 03:18:11;;;;;;;4.82;2.42;;;20.40;74.10;;;;;;4954232;28;20052;-41
2022/08/10 03:20:39;;;;;;;2.78;2.47;;;20.40;74.30;;;;;;4954041;28;20031;-43
2022/08/10 03:23:12;;;;;;;5.15;3.78;;;20.40;74.50;;;;;;4953693;28;20023;-42
2022/08/10 03:25:39;;;;;;;7.40;2.33;;;20.40;74.60;;;;;;4953870;28;20589;-46
2022/08/10 03:28:05;;;;;;;8.40;2.78;;;20.30;74.60;;;;;;4953657;28;20035;-47
2022/08/10 03:30:32;;;;;;;5.47;2.83;;;20.30;74.80;;;;;;4953163;28;20110;-41
2022/08/10 03:32:59;;;;;;;5.93;2.80;;;20.30;74.90;;;;;;4953324;28;20031;-41
2022/08/10 03:35:25;;;;;;;4.88;2.47;;;20.20;75.00;;;;;;4953668;28;20388;-46
2022/08/10 03:37:50;;;;;;;6.97;2.97;;;20.20;75.00;;;;;;4953695;29;20090;-42
2022/08/10 03:40:16;;;;;;;10.52;2.97;;;20.20;75.10;;;;;;4953372;28;20110;-43
2022/08/10 03:42:43;;;;;;;5.10;2.53;;;20.20;75.20;;;;;;4953159;29;20047;-41
2022/08/10 03:45:09;;;;;;;5.70;2.75;;;20.20;75.30;;;;;;4953560;28;20031;-45
2022/08/10 03:47:41;;;;;;;3.17;2.55;;;20.20;75.30;;;;;;4953898;28;20038;-44
2022/08/10 03:50:09;;;;;;;5.05;2.72;;;20.10;75.40;;;;;;4953507;28;20031;-43
2022/08/10 03:52:34;;;;;;;3.95;2.85;;;20.10;75.50;;;;;;4953109;28;20035;-47
2022/08/10 03:55:00;;;;;;;5.47;2.72;;;20.10;75.70;;;;;;4953300;29;20031;-41
2022/08/10 03:57:28;;;;;;;2.83;2.40;;;20.10;75.80;;;;;;4953599;28;20520;-44
2022/08/10 03:59:55;;;;;;;7.82;3.10;;;20.10;75.90;;;;;;4953382;28;20444;-42
2022/08/10 04:02:21;;;;;;;3.20;2.78;;;20.00;76.10;;;;;;4952010;29;20023;-41
2022/08/10 04:04:47;;;;;;;14.85;3.47;;;20.00;76.20;;;;;;4953284;28;20143;-45
2022/08/10 04:07:13;;;;;;;3.85;2.85;;;19.90;76.40;;;;;;4953173;29;20524;-42
2022/08/10 04:09:38;;;;;;;4.60;2.53;;;19.90;76.60;;;;;;4953399;28;20027;-44
2022/08/10 04:12:05;;;;;;;3.55;2.53;;;19.80;76.80;;;;;;4953005;28;20034;-42
2022/08/10 04:14:30;;;;;;;6.90;3.00;;;19.80;77.00;;;;;;4953146;28;20030;-44
2022/08/10 04:16:56;;;;;;;3.08;2.38;;;19.80;77.10;;;;;;4953164;29;20036;-42
2022/08/10 04:19:22;;;;;;;6.38;2.63;;;19.70;77.30;;;;;;4953128;28;20082;-42
2022/08/10 04:22:01;;;;;;;5.40;2.80;;;19.70;77.60;;;;;;4953032;28;20027;-42
2022/08/10 04:24:29;;;;;;;7.47;2.83;;;19.70;78.40;;;;;;4953316;28;20020;-44
2022/08/10 04:26:55;;;;;;;10.68;2.75;;;19.70;78.00;;;;;;4953390;28;20024;-45
2022/08/10 04:29:20;;;;;;;6.60;2.72;;;19.60;78.00;;;;;;4953984;28;20059;-43
2022/08/10 04:31:47;;;;;;;4.85;2.70;;;19.60;78.00;;;;;;4956503;29;20106;-41
2022/08/10 04:34:14;;;;;;;2.47;2.28;;;19.60;78.10;;;;;;4956686;28;20432;-42
2022/08/10 04:36:41;;;;;;;9.15;3.08;;;19.60;78.40;;;;;;4956925;28;20476;-43
2022/08/10 04:39:06;;;;;;;2.75;2.47;;;19.50;78.60;;;;;;4956773;28;20039;-42
2022/08/10 04:41:32;;;;;;;7.00;2.65;;;19.50;78.50;;;;;;4956589;28;20035;-41
2022/08/10 04:43:58;;;;;;;6.35;2.70;;;19.60;78.60;;;;;;4956729;29;20031;-41
2022/08/10 04:46:24;;;;;;;8.15;3.05;;;19.50;78.60;;;;;;4956817;29;20429;-46
2022/08/10 04:48:49;;;;;;;6.03;2.53;;;19.50;78.90;;;;;;4956788;29;20034;-41
2022/08/10 04:51:16;;;;;;;4.50;3.13;;;19.50;78.90;;;;;;4956302;28;20074;-43
2022/08/10 04:53:42;;;;;;;11.82;2.97;;;19.50;79.00;;;;;;4956357;28;20035;-41
2022/08/10 04:56:08;;;;;;;4.20;2.70;;;19.60;78.80;;;;;;4955201;29;20042;-44
2022/08/10 04:58:34;;;;;;;6.43;2.50;;;19.80;78.50;;;;;;4956859;28;20031;-41
2022/08/10 05:01:01;;;;;;;7.90;3.38;;;20.00;77.80;;;;;;4956249;28;20495;-41
2022/08/10 05:03:26;;;;;;;3.58;2.38;;;20.40;76.80;;;;;;4956154;28;20440;-42
2022/08/10 05:05:51;;;;;;;7.05;2.28;;;20.80;75.60;;;;;;4955068;29;20023;-44
2022/08/10 05:08:17;;;;;;;6.10;2.85;;;21.20;74.50;;;;;;4956433;29;20028;-45
2022/08/10 05:10:43;;;;;;;13.90;2.75;;;21.60;74.10;;;;;;4956085;28;20030;-45
2022/08/10 05:13:08;;;;;;;7.78;2.60;;;21.90;73.00;;;;;;4954483;29;20027;-44
2022/08/10 05:15:34;;;;;;;5.07;2.30;;;22.20;72.20;;;;;;4956038;28;20110;-44
2022/08/10 05:17:59;;;;;;;5.88;2.97;;;22.50;71.70;;;;;;4955997;29;20043;-46
2022/08/10 05:20:25;;;;;;;4.28;2.67;;;22.70;71.20;;;;;;4955800;28;20519;-46
2022/08/10 05:22:50;;;;;;;3.65;2.50;;;22.90;70.60;;;;;;4955518;29;20522;-45
2022/08/10 05:25:18;;;;;;;3.78;2.60;;;23.30;70.10;;;;;;4956221;29;20102;-45
2022/08/10 05:27:44;;;;;;;9.13;2.72;;;23.50;69.40;;;;;;4955846;28;20031;-42
2022/08/10 05:30:13;;;;;;;10.63;2.70;;;23.70;68.90;;;;;;4955167;28;20039;-45
2022/08/10 05:32:39;;;;;;;5.40;2.67;;;23.80;68.40;;;;;;4955406;28;20114;-42
2022/08/10 05:35:05;;;;;;;5.93;2.83;;;24.00;68.10;;;;;;4955761;29;20142;-43
2022/08/10 05:37:31;;;;;;;8.07;2.60;;;24.20;67.60;;;;;;4955826;28;20031;-42
2022/08/10 05:39:57;;;;;;;9.15;2.85;;;24.30;67.60;;;;;;4955434;28;20473;-42
2022/08/10 05:42:24;;;;;;;10.13;2.83;;;24.60;66.80;;;;;;4955226;28;20019;-45
2022/08/10 05:44:50;;;;;;;4.20;2.55;;;24.60;66.80;;;;;;4956081;28;20027;-50
2022/08/10 05:47:16;;;;;;;9.90;2.55;;;24.80;66.10;;;;;;4956052;28;20031;-47
2022/08/10 05:49:42;;;;;;;3.58;2.47;;;24.80;66.20;;;;;;4979105;23;20073;-46
2022/08/10 05:52:07;;;;;;;3.75;2.42;;;24.90;66.30;;;;;;4954078;29;20027;-51
2022/08/10 05:54:33;;;;;;;6.07;2.53;;;25.00;66.60;;;;;;4955367;29;20023;-47
2022/08/10 05:56:59;;;;;;;2.72;2.40;;;25.10;65.90;;;;;;4955323;28;20051;-47
2022/08/10 05:59:30;;;;;;;6.43;2.72;;;25.40;65.30;;;;;;4955096;28;20463;-47
2022/08/10 06:01:59;;;;;;;3.97;2.33;;;25.70;65.30;;;;;;4954708;28;20114;-51
2022/08/10 06:04:29;;;;;;;10.07;2.65;;;25.90;64.80;;;;;;4952095;28;20046;-52
2022/08/10 06:06:56;;;;;;;3.08;2.42;;;26.20;64.10;;;;;;4943340;28;20031;-47
2022/08/10 06:09:24;;;;;;;4.43;2.60;;;26.30;63.70;;;;;;4953877;28;20102;-48
2022/08/10 06:11:52;;;;;;;6.90;2.25;;;26.20;63.20;;;;;;4952674;29;20027;-49
2022/08/10 06:17:04;;;;;;;5.30;2.00;;;26.20;63.50;;;;;;4955076;29;20468;-50
2022/08/10 06:19:30;;;;;;;4.68;3.88;;;26.60;63.20;;;;;;4953860;28;20019;-47
2022/08/10 06:22:00;;;;;;;8.23;2.60;;;27.10;62.50;;;;;;4954595;28;20118;-49
2022/08/10 06:24:30;;;;;;;5.15;2.60;;;27.10;61.90;;;;;;4953952;28;20054;-48
2022/08/10 06:26:55;;;;;;;4.55;2.40;;;27.00;62.00;;;;;;4954405;28;20026;-44
2022/08/10 06:29:23;;;;;;;7.43;3.15;;;26.70;62.40;;;;;;4954546;29;20035;-47
2022/08/10 06:31:50;;;;;;;6.90;2.70;;;26.60;62.90;;;;;;4954456;28;20031;-47
2022/08/10 06:34:28;;;;;;;3.45;2.67;;;26.70;62.40;;;;;;4954278;28;20409;-45
2022/08/10 06:36:56;;;;;;;3.92;2.20;;;26.90;62.30;;;;;;4954566;28;20442;-47
2022/08/10 06:39:22;;;;;;;4.72;2.67;;;27.00;61.80;;;;;;4954057;28;20051;-46
2022/08/10 06:41:52;;;;;;;5.40;2.45;;;27.30;61.80;;;;;;4954236;29;20528;-46
2022/08/10 06:44:24;;;;;;;3.58;2.63;;;27.70;60.70;;;;;;4954215;28;20023;-47
2022/08/10 06:46:53;;;;;;;6.65;2.58;;;28.20;60.20;;;;;;4954421;28;20034;-46
2022/08/10 06:49:21;;;;;;;4.80;2.88;;;28.90;59.20;;;;;;4954328;28;20050;-45
2022/08/10 06:51:53;;;;;;;1.92;1.67;;;29.40;58.10;;;;;;4953313;28;20582;-48
2022/08/10 06:54:23;;;;;;;7.75;2.40;;;29.50;57.40;;;;;;4954346;28;20023;-45
2022/08/10 06:56:51;;;;;;;4.28;2.08;;;29.40;57.80;;;;;;4954142;28;20106;-46
2022/08/10 06:59:29;;;;;;;2.67;2.05;;;29.40;58.00;;;;;;4954258;28;20035;-45
2022/08/10 07:02:02;;;;;;;7.18;2.30;;;29.50;57.40;;;;;;4953966;29;20027;-47
2022/08/10 07:04:58;;;;;;;5.65;2.30;;;29.80;57.50;;;;;;4954185;28;20066;-44
2022/08/10 07:07:28;;;;;;;11.50;2.17;;;29.90;57.50;;;;;;4953384;29;20039;-46
2022/08/10 07:09:56;;;;;;;3.70;2.60;;;30.00;57.20;;;;;;4954192;28;20038;-46
2022/08/10 07:12:24;;;;;;;3.90;2.50;;;29.90;56.90;;;;;;4952295;29;20031;-45
2022/08/10 07:14:51;;;;;;;5.13;2.55;;;30.00;56.90;;;;;;4954237;28;20033;-45
2022/08/10 07:17:19;;;;;;;6.55;2.22;;;29.90;56.90;;;;;;4953883;28;20038;-45
2022/08/10 07:19:50;;;;;;;4.05;2.25;;;29.60;56.70;;;;;;4953737;28;20039;-45
2022/08/10 07:22:17;;;;;;;2.78;2.00;;;30.00;56.50;;;;;;4953684;28;20082;-46
2022/08/10 07:24:44;;;;;;;3.42;2.08;;;30.70;56.40;;;;;;4952775;29;20037;-46
2022/08/10 07:27:11;;;;;;;4.53;2.00;;;31.40;55.10;;;;;;4954024;28;20035;-44
2022/08/10 07:29:39;;;;;;;2.58;2.15;;;31.80;54.80;;;;;;4952699;28;20455;-47
2022/08/10 07:32:06;;;;;;;2.17;2.00;;;31.90;54.20;;;;;;4953521;28;20654;-51
2022/08/10 07:34:35;;;;;;;4.65;1.95;;;32.00;54.20;;;;;;4953750;28;20505;-47
2022/08/10 07:37:04;;;;;;;6.40;2.05;;;32.10;53.70;;;;;;4953741;28;20508;-47
2022/08/10 07:39:35;;;;;;;4.75;2.17;;;32.20;54.00;;;;;;4953130;28;20055;-45
2022/08/10 07:42:03;;;;;;;8.38;2.33;;;31.80;54.10;;;;;;4952143;29;20019;-49
2022/08/10 07:44:30;;;;;;;5.45;3.03;;;31.70;53.80;;;;;;4953467;28;20042;-48
2022/08/10 07:46:58;;;;;;;3.67;1.90;;;31.80;53.80;;;;;;4953409;28;20031;-44
2022/08/10 07:49:27;;;;;;;7.47;1.98;;;32.10;53.70;;;;;;4952136;28;20456;-45
2022/08/10 07:51:55;;;;;;;3.95;1.88;;;31.30;54.50;;;;;;4951477;29;20031;-47
2022/08/10 07:54:22;;;;;;;4.20;2.15;;;31.20;54.50;;;;;;4934393;29;20115;-49
2022/08/10 07:56:52;;;;;;;7.55;2.13;;;30.90;55.00;;;;;;4938628;28;20035;-46
2022/08/10 07:59:40;;;;;;;3.97;1.77;;;31.10;54.80;;;;;;4934600;29;20036;-46
2022/08/10 08:02:19;;;;;;;8.30;2.25;;;31.30;54.50;;;;;;4944047;29;20082;-47
2022/08/10 08:04:46;;;;;;;4.05;1.90;;;31.30;54.50;;;;;;4955276;28;20222;-47
2022/08/10 08:07:13;;;;;;;2.78;1.92;;;31.50;54.20;;;;;;4957324;28;20031;-47
2022/08/10 08:09:39;;;;;;;2.28;1.80;;;31.70;54.30;;;;;;4955956;28;20035;-45
2022/08/10 08:12:08;;;;;;;6.15;1.88;;;32.10;54.00;;;;;;4956241;28;20031;-46
2022/08/10 08:14:34;;;;;;;9.85;2.47;;;32.80;53.10;;;;;;4957159;28;20421;-47
2022/08/10 08:17:00;;;;;;;3.30;1.70;;;32.80;53.30;;;;;;4954400;28;20028;-47
2022/08/10 08:19:28;;;;;;;4.53;1.85;;;33.10;53.00;;;;;;4937880;29;20026;-45
2022/08/10 08:21:54;;;;;;;6.15;1.67;;;32.80;52.80;;;;;;4950583;28;20449;-47
2022/08/10 08:24:22;;;;;;;4.18;1.88;;;32.70;52.70;;;;;;4955896;29;20028;-48
2022/08/10 08:26:48;;;;;;;3.60;1.70;;;32.50;53.30;;;;;;4956895;28;20106;-50
2022/08/10 08:29:15;;;;;;;11.65;10.20;;;32.90;52.60;;;;;;4954177;28;20051;-46
2022/08/10 08:31:42;;;;;;;20.50;16.90;;;33.10;52.40;;;;;;4952105;29;20413;-44
2022/08/10 08:34:11;;;;;;;7.85;1.83;;;33.70;52.30;;;;;;4955832;28;20118;-44
2022/08/10 08:36:39;;;;;;;9.02;1.88;;;33.90;51.60;;;;;;4956078;28;20110;-41
2022/08/10 08:39:04;;;;;;;8.93;2.60;;;33.90;51.70;;;;;;4955563;28;20023;-46
2022/08/10 08:41:59;;;;;;;4.10;2.00;;;33.60;51.70;;;;;;4953961;28;20038;-44
2022/08/10 08:44:49;;;;;;;2.63;1.70;;;33.70;51.90;;;;;;4954460;29;20195;-45
2022/08/10 08:47:34;;;;;;;4.85;1.65;;;33.70;51.80;;;;;;4939879;29;20024;-42
2022/08/10 08:50:14;;;;;;;4.38;1.50;;;33.10;52.10;;;;;;4937167;29;20408;-43
2022/08/10 08:52:52;;;;;;;3.45;1.75;;;32.70;52.70;;;;;;4937382;29;20032;-41
2022/08/10 08:55:52;;;;;;;3.55;1.70;;;32.30;52.90;;;;;;4937430;29;20512;-52
2022/08/10 08:58:46;;;;;;;3.65;2.13;;;32.10;52.90;;;;;;4944060;29;20023;-47
2022/08/10 09:01:20;;;;;;;3.15;1.70;;;31.60;54.00;;;;;;4957110;28;20026;-45
2022/08/10 09:04:10;;;;;;;3.17;1.80;;;31.10;54.40;;;;;;4956293;28;20027;-46
2022/08/10 09:06:53;;;;;;;4.55;1.70;;;31.20;55.00;;;;;;4956653;29;20038;-45
2022/08/10 09:09:36;;;;;;;2.95;1.52;;;31.00;54.30;;;;;;4956412;28;20047;-49
2022/08/10 09:12:39;;;;;;;21.83;16.98;;;31.10;54.30;;;;;;4955952;28;20030;-47
2022/08/10 09:15:12;;;;;;;4.50;1.65;;;30.80;54.80;;;;;;4955898;28;20043;-48
2022/08/10 09:18:06;;;;;;;11.95;1.70;;;30.60;54.60;;;;;;4956230;29;20071;-45
2022/08/10 09:21:14;;;;;;;2.17;1.70;;;30.50;55.50;;;;;;4954768;29;20027;-48
2022/08/10 09:23:44;;;;;;;4.72;1.50;;;30.60;54.90;;;;;;4948334;29;20035;-45
2022/08/10 09:26:24;;;;;;;2.22;1.30;;;30.50;54.60;;;;;;4955994;29;20023;-44
2022/08/10 09:28:55;;;;;;;4.38;1.40;;;30.70;54.40;;;;;;4956284;28;20110;-47
2022/08/10 09:31:24;;;;;;;2.72;1.30;;;30.70;54.40;;;;;;4955821;28;20115;-46
2022/08/10 09:34:02;;;;;;;3.15;1.15;;;30.90;54.20;;;;;;4955468;28;20067;-44
2022/08/10 09:36:37;;;;;;;4.88;1.63;;;30.70;54.10;;;;;;4936501;29;20497;-43
2022/08/10 09:39:30;;;;;;;1.85;1.50;;;30.60;54.70;;;;;;4936390;29;20112;-43
2022/08/10 09:42:07;;;;;;;4.40;1.50;;;30.50;54.60;;;;;;4936427;29;20051;-44
2022/08/10 09:44:42;;;;;;;4.43;1.38;;;30.40;53.90;;;;;;4936436;29;20040;-45
2022/08/10 09:47:21;;;;;;;;;;;30.00;53.80;;;;;;4936787;29;20389;-43
2022/08/10 09:50:20;;;;;;;1.20;1.10;;;29.70;53.70;;;;;;4936166;29;19917;-48
2022/08/10 09:53:00;;;;;;;2.53;1.48;;;29.70;54.30;;;;;;4935749;29;20512;-45
2022/08/10 09:55:41;;;;;;;4.55;1.40;;;29.70;53.80;;;;;;4949757;29;20119;-45
2022/08/10 09:58:34;;;;;;;3.92;1.20;;;29.70;53.60;;;;;;4954965;28;20035;-46
2022/08/10 10:01:17;;;;;;;2.90;1.33;;;29.70;54.30;;;;;;4934683;29;20035;-48
2022/08/10 10:04:18;;;;;;;3.05;1.75;;;29.60;53.90;;;;;;4943592;29;20031;-48
2022/08/10 10:06:56;;;;;;;3.10;1.60;;;29.40;54.40;;;;;;4955105;29;20113;-46
2022/08/10 10:09:57;;;;;;;2.70;1.50;;;29.30;54.70;;;;;;4954427;28;20090;-43
2022/08/10 10:12:38;;;;;;;4.68;1.50;;;29.40;54.70;;;;;;4924991;29;20032;-45
2022/08/10 10:15:19;;;;;;;6.05;1.88;;;29.60;54.80;;;;;;4954388;28;20130;-45
2022/08/10 10:17:53;;;;;;;3.40;1.90;;;29.50;54.60;;;;;;4955100;28;20059;-45
2022/08/10 10:20:31;;;;;;;4.30;1.80;;;29.50;54.10;;;;;;4954022;28;20086;-45
2022/08/10 10:23:30;;;;;;;1.75;1.40;;;29.60;54.50;;;;;;4953970;28;20063;-46
2022/08/10 10:26:16;;;;;;;6.15;1.63;;;30.00;54.60;;;;;;4954406;28;20023;-45
2022/08/10 10:29:21;;;;;;;10.43;1.65;;;30.00;54.50;;;;;;4954422;29;20102;-44
2022/08/10 10:32:08;;;;;;;6.50;5.15;;;30.00;54.10;;;;;;4954316;28;20468;-48
2022/08/10 10:34:52;;;;;;;10.18;7.43;;;30.10;54.80;;;;;;4954732;29;20027;-47
2022/08/10 10:37:21;;;;;;;40.92;33.33;;;30.00;54.30;;;;;;4954458;29;20062;-45
2022/08/10 10:39:52;;;;;;;2.00;1.85;;;29.80;54.40;;;;;;4954432;28;20031;-44
2022/08/10 10:42:39;;;;;;;4.93;1.50;;;29.70;54.70;;;;;;4952891;29;20019;-46
2022/08/10 10:45:17;;;;;;;2.85;1.30;;;29.70;55.30;;;;;;4954606;29;20024;-44
2022/08/10 10:48:01;;;;;;;3.47;1.40;;;29.70;55.30;;;;;;4954054;29;20035;-48
2022/08/10 10:50:26;;;;;;;5.77;1.80;;;29.60;53.90;;;;;;4953794;29;20432;-46
2022/08/10 10:53:11;;;;;;;4.93;1.40;;;29.50;53.80;;;;;;4954014;29;20059;-42
2022/08/10 10:56:01;;;;;;;2.65;1.45;;;29.30;53.90;;;;;;4953656;28;20039;-44
2022/08/10 10:58:38;;;;;;;6.63;1.73;;;29.10;54.00;;;;;;4954144;29;20035;-44
2022/08/10 11:01:09;;;;;;;3.95;1.77;;;29.00;54.70;;;;;;4951551;28;20038;-50
2022/08/10 11:03:59;;;;;;;2.60;1.25;;;28.90;52.60;;;;;;4941126;29;20032;-44
2022/08/10 11:06:58;;;;;;;5.47;1.60;;;28.80;52.50;;;;;;4953742;29;20031;-43
2022/08/10 11:09:35;;;;;;;4.68;1.50;;;28.80;52.80;;;;;;4938452;28;20027;-43
2022/08/10 11:12:20;;;;;;;7.10;1.75;;;28.90;52.50;;;;;;4972935;28;20038;-44
2022/08/10 11:15:06;;;;;;;2.10;1.20;;;28.90;52.70;;;;;;4973082;28;20030;-45
2022/08/10 11:17:43;;;;;;;3.40;1.60;;;29.00;51.90;;;;;;4973342;28;20027;-45
2022/08/10 11:20:25;;;;;;;1.80;1.42;;;29.10;51.90;;;;;;4961892;28;20094;-43
2022/08/10 11:23:11;;;;;;;6.43;1.42;;;29.10;51.80;;;;;;4953274;28;20031;-43
2022/08/10 11:25:44;;;;;;;2.10;1.65;;;29.10;52.30;;;;;;4953683;28;20050;-44
2022/08/10 11:28:24;;;;;;;2.38;1.50;;;29.10;51.70;;;;;;4953465;28;20042;-44
2022/08/10 11:31:12;;;;;;;12.70;1.55;;;28.80;51.60;;;;;;4953636;28;20031;-47
2022/08/10 11:33:59;;;;;;;5.30;1.60;;;28.80;51.30;;;;;;4953199;28;20046;-47
2022/08/10 11:36:57;;;;;;;5.45;1.48;;;28.70;51.50;;;;;;4952026;28;20042;-41
2022/08/10 11:39:30;;;;;;;2.65;1.38;;;28.60;52.10;;;;;;4951056;28;20029;-44
2022/08/10 11:42:05;;;;;;;2.63;1.65;;;28.60;51.90;;;;;;4952554;29;20029;-41
2022/08/10 11:44:46;;;;;;;5.47;4.25;;;28.60;51.90;;;;;;4953293;28;20027;-43
2022/08/10 11:47:22;;;;;;;2.75;1.75;;;28.70;51.90;;;;;;4946405;28;20020;-42
2022/08/10 11:50:02;;;;;;;4.20;1.40;;;28.70;51.70;;;;;;4949671;28;20027;-43
2022/08/10 11:53:00;;;;;;;4.68;1.40;;;28.80;51.90;;;;;;4959173;28;20101;-45
2022/08/10 11:55:30;;;;;;;5.00;1.20;;;28.70;51.30;;;;;;4955423;28;20034;-49
2022/08/10 11:58:00;;;;;;;3.80;1.30;;;28.80;52.10;;;;;;4950922;28;20037;-48
2022/08/10 12:00:30;;;;;;;1.50;0.98;;;28.90;52.20;;;;;;4936022;29;20050;-41
2022/08/10 12:03:00;;;;;;;1.40;1.30;;;29.00;51.60;;;;;;4955659;28;20031;-44
2022/08/10 12:05:29;;;;;;;3.63;1.20;;;29.10;51.50;;;;;;4953455;28;20023;-44
2022/08/10 12:07:58;;;;;;;5.05;1.40;;;29.10;51.00;;;;;;4953301;28;20123;-44
2022/08/10 12:10:25;;;;;;;1.85;1.58;;;29.00;50.70;;;;;;4952658;28;20032;-43
2022/08/10 12:13:03;;;;;;;1.30;1.20;;;28.90;51.50;;;;;;4952428;28;20115;-40
2022/08/10 12:15:39;;;;;;;2.13;1.20;;;28.90;51.10;;;;;;4951783;29;20035;-51
2022/08/10 12:18:12;;;;;;;2.85;1.70;;;28.80;51.60;;;;;;4954786;28;20039;-44
2022/08/10 12:20:41;;;;;;;7.50;1.30;;;28.90;51.50;;;;;;4941968;28;20485;-45
2022/08/10 12:23:17;;;;;;;2.92;1.40;;;28.90;51.80;;;;;;4952733;28;20028;-43
2022/08/10 12:26:00;;;;;;;2.47;1.40;;;28.90;52.00;;;;;;4951224;29;20322;-44
2022/08/10 12:28:46;;;;;;;4.00;1.77;;;28.90;51.80;;;;;;4952761;29;20114;-44
2022/08/10 12:31:14;;;;;;;2.13;1.50;;;28.90;52.20;;;;;;4952455;28;20130;-43
2022/08/10 12:33:47;;;;;;;3.88;1.52;;;28.90;51.60;;;;;;4952731;28;20035;-48
2022/08/10 12:36:26;;;;;;;1.65;1.55;;;29.00;51.90;;;;;;4952982;28;20492;-43
2022/08/10 12:39:17;;;;;;;1.52;1.30;;;29.10;52.20;;;;;;4952985;28;20035;-45
2022/08/10 12:42:00;;;;;;;3.67;1.92;;;29.10;52.00;;;;;;4952855;28;20034;-42
2022/08/10 12:44:46;;;;;;;5.13;3.75;;;29.10;51.50;;;;;;4952927;28;20041;-41
2022/08/10 12:47:33;;;;;;;7.72;4.45;;;28.90;51.40;;;;;;4952979;28;20070;-46
2022/08/10 12:50:02;;;;;;;1.05;1.02;;;28.90;51.80;;;;;;4953625;28;20492;-43
2022/08/10 12:52:35;;;;;;;4.72;1.67;;;29.00;51.90;;;;;;4956090;28;20031;-42
2022/08/10 12:55:03;;;;;;;3.17;1.38;;;29.10;51.50;;;;;;4956329;28;20389;-43
2022/08/10 12:57:35;;;;;;;3.65;1.30;;;29.20;51.40;;;;;;4956432;28;20035;-46
2022/08/10 13:00:03;;;;;;;5.55;2.20;;;29.20;51.30;;;;;;4956402;28;20027;-43
2022/08/10 13:02:32;;;;;;;4.65;1.40;;;29.30;51.30;;;;;;4956122;28;20058;-44
2022/08/10 13:05:02;;;;;;;6.35;1.63;;;29.20;50.90;;;;;;4956346;28;20481;-43
2022/08/10 13:07:38;;;;;;;4.22;1.63;;;29.10;50.80;;;;;;4954978;29;20034;-42
2022/08/10 13:10:09;;;;;;;4.60;1.38;;;29.10;51.20;;;;;;4956494;28;20472;-43
2022/08/10 13:12:38;;;;;;;1.80;1.20;;;29.20;50.90;;;;;;4955933;28;20035;-44
2022/08/10 13:15:21;;;;;;;3.88;1.60;;;29.20;50.70;;;;;;4956410;28;20036;-41
2022/08/10 13:17:48;;;;;;;5.43;1.70;;;29.20;51.10;;;;;;4956134;29;20031;-42
2022/08/10 13:20:19;;;;;;;2.90;1.10;;;29.20;50.40;;;;;;4955972;28;20114;-45